TimeCDT,TemperatureF,Dew PointF,Humidity,Sea Level PressureIn,VisibilityMPH,Wind Direction,Wind SpeedMPH,Gust SpeedMPH,PrecipitationIn,Events,Conditions,WindDirDegrees,DateUTC
12:35 AM,37.4,35.6,93,29.89,4.0,Calm,Calm,-,N/A,,Clear,0,2012-10-21 05:35:00
12:55 AM,37.4,35.6,93,29.91,0.8,Calm,Calm,-,N/A,,Mist,0,2012-10-21 05:55:00
1:15 AM,35.6,33.8,93,29.91,1.0,Calm,Calm,-,N/A,,Mist,0,2012-10-21 06:15:00
1:35 AM,35.6,33.8,93,29.91,1.8,Calm,Calm,-,N/A,,Mist,0,2012-10-21 06:35:00
2:15 AM,35.6,33.8,93,29.92,0.8,Calm,Calm,-,N/A,,Mist,0,2012-10-21 07:15:00
2:35 AM,35.6,33.8,93,29.93,5.0,Calm,Calm,-,N/A,,Clear,0,2012-10-21 07:35:00
2:55 AM,33.8,32.0,93,29.93,5.0,Calm,Calm,-,N/A,,Clear,0,2012-10-21 07:55:00
3:15 AM,33.8,32.0,93,29.94,0.8,Calm,Calm,-,N/A,,Mist,0,2012-10-21 08:15:00
3:35 AM,33.8,32.0,93,29.94,1.0,Calm,Calm,-,N/A,,Mist,0,2012-10-21 08:35:00
3:55 AM,33.8,32.0,93,29.94,1.8,Calm,Calm,-,N/A,,Mist,0,2012-10-21 08:55:00
4:15 AM,33.8,32.0,93,29.94,0.5,Calm,Calm,-,N/A,Fog,Fog,0,2012-10-21 09:15:00
4:35 AM,33.8,32.0,93,29.94,0.5,Calm,Calm,-,N/A,Fog,Fog,0,2012-10-21 09:35:00
5:15 AM,33.8,32.0,93,29.95,1.8,Calm,Calm,-,N/A,,Mostly Cloudy,0,2012-10-21 10:15:00
6:15 AM,32.0,32.0,100,29.97,5.0,Calm,Calm,-,N/A,,Clear,0,2012-10-21 11:15:00
6:35 AM,32.0,32.0,100,29.96,3.0,Calm,Calm,-,N/A,,Clear,0,2012-10-21 11:35:00
6:55 AM,32.0,32.0,100,29.97,5.0,Calm,Calm,-,N/A,,Clear,0,2012-10-21 11:55:00
7:15 AM,32.0,32.0,100,29.98,3.0,Calm,Calm,-,N/A,,Scattered Clouds,0,2012-10-21 12:15:00
7:35 AM,32.0,32.0,100,29.98,0.2,Calm,Calm,-,N/A,Fog,Fog,0,2012-10-21 12:35:00
7:55 AM,32.0,32.0,100,29.98,5.0,Calm,Calm,-,N/A,,Clear,0,2012-10-21 12:55:00
8:35 AM,35.6,33.8,93,29.99,7.0,Calm,Calm,-,N/A,,Clear,0,2012-10-21 13:35:00
8:55 AM,37.4,35.6,93,29.99,7.0,Calm,Calm,-,N/A,,Clear,0,2012-10-21 13:55:00
9:35 AM,42.8,41.0,93,30.00,10.0,Calm,Calm,-,N/A,,Clear,0,2012-10-21 14:35:00
10:15 AM,46.4,42.8,87,30.00,10.0,SSE,5.8,-,N/A,,Clear,150,2012-10-21 15:15:00
10:35 AM,50.0,42.8,76,30.00,10.0,SSE,5.8,-,N/A,,Clear,160,2012-10-21 15:35:00
10:55 AM,53.6,42.8,67,30.00,10.0,SSE,4.6,-,N/A,,Clear,160,2012-10-21 15:55:00
11:15 AM,55.4,42.8,63,30.00,10.0,SSE,4.6,-,N/A,,Clear,150,2012-10-21 16:15:00
11:35 AM,55.4,42.8,63,29.99,10.0,SSE,3.5,-,N/A,,Clear,160,2012-10-21 16:35:00
12:15 PM,59.0,42.8,55,29.98,10.0,SE,6.9,-,N/A,,Clear,140,2012-10-21 17:15:00
12:35 PM,59.0,42.8,55,29.98,10.0,SE,5.8,-,N/A,,Clear,140,2012-10-21 17:35:00
12:55 PM,60.8,41.0,48,29.96,10.0,South,10.4,-,N/A,,Clear,170,2012-10-21 17:55:00
1:15 PM,60.8,41.0,48,29.96,10.0,SE,5.8,-,N/A,,Clear,140,2012-10-21 18:15:00
1:35 PM,60.8,41.0,48,29.96,10.0,South,8.1,-,N/A,,Clear,180,2012-10-21 18:35:00
1:55 PM,62.6,41.0,45,29.96,10.0,South,8.1,-,N/A,,Clear,170,2012-10-21 18:55:00
2:15 PM,62.6,39.2,42,29.95,10.0,SE,8.1,-,N/A,,Clear,130,2012-10-21 19:15:00
2:35 PM,62.6,41.0,45,29.96,10.0,SE,5.8,-,N/A,,Clear,130,2012-10-21 19:35:00
2:55 PM,62.6,39.2,42,29.94,10.0,SE,9.2,-,N/A,,Clear,130,2012-10-21 19:55:00
3:15 PM,62.6,41.0,45,29.95,10.0,SE,6.9,-,N/A,,Clear,140,2012-10-21 20:15:00
3:35 PM,62.6,42.8,48,29.94,10.0,ESE,10.4,-,N/A,,Clear,120,2012-10-21 20:35:00
3:55 PM,62.6,42.8,48,29.94,10.0,SE,10.4,-,N/A,,Clear,130,2012-10-21 20:55:00
4:15 PM,62.6,42.8,48,29.94,10.0,SE,6.9,-,N/A,,Clear,130,2012-10-21 21:15:00
4:35 PM,62.6,44.6,52,29.94,10.0,SE,6.9,-,N/A,,Clear,130,2012-10-21 21:35:00
5:15 PM,59.0,44.6,59,29.95,10.0,ESE,5.8,-,N/A,,Clear,120,2012-10-21 22:15:00
5:35 PM,59.0,44.6,59,29.94,10.0,ESE,4.6,-,N/A,,Clear,120,2012-10-21 22:35:00
5:55 PM,59.0,44.6,59,29.95,10.0,ESE,5.8,-,N/A,,Clear,120,2012-10-21 22:55:00
6:15 PM,55.4,44.6,67,29.94,10.0,ESE,5.8,-,N/A,,Clear,110,2012-10-21 23:15:00
6:35 PM,53.6,42.8,67,29.94,10.0,ESE,4.6,-,N/A,,Clear,110,2012-10-21 23:35:00
6:55 PM,53.6,42.8,67,29.94,10.0,ESE,5.8,-,N/A,,Clear,110,2012-10-21 23:55:00
7:15 PM,53.6,42.8,67,29.93,10.0,ESE,8.1,-,N/A,,Clear,120,2012-10-22 00:15:00
7:35 PM,53.6,42.8,67,29.93,10.0,ESE,9.2,-,N/A,,Clear,120,2012-10-22 00:35:00
7:55 PM,53.6,44.6,72,29.93,10.0,ESE,8.1,-,N/A,,Clear,120,2012-10-22 00:55:00
8:15 PM,53.6,44.6,72,29.94,10.0,ESE,5.8,-,N/A,,Clear,120,2012-10-22 01:15:00
8:35 PM,51.8,44.6,76,29.94,10.0,SE,5.8,-,N/A,,Clear,130,2012-10-22 01:35:00
8:55 PM,51.8,44.6,76,29.94,10.0,SE,5.8,-,N/A,,Clear,130,2012-10-22 01:55:00
9:15 PM,51.8,46.4,82,29.95,7.0,SE,5.8,-,N/A,,Clear,140,2012-10-22 02:15:00
9:35 PM,51.8,46.4,82,29.94,7.0,SE,5.8,-,N/A,,Clear,130,2012-10-22 02:35:00
10:15 PM,51.8,46.4,82,29.95,7.0,Calm,Calm,-,N/A,,Clear,0,2012-10-22 03:15:00
10:35 PM,51.8,46.4,82,29.96,7.0,Calm,Calm,-,N/A,,Clear,0,2012-10-22 03:35:00
10:55 PM,50.0,46.4,87,29.96,7.0,East,3.5,-,N/A,,Clear,80,2012-10-22 03:55:00
11:35 PM,50.0,46.4,87,29.96,7.0,Calm,Calm,-,N/A,,Clear,0,2012-10-22 04:35:00
11:55 PM,50.0,46.4,87,29.97,7.0,NNE,3.5,-,N/A,,Clear,20,2012-10-22 04:55:00